Santa Barbara — 3FWW8 — position and weather

sailwx.info

Track history (hours):
 
Tides and Currents Weather Stations Pressure Air Temp Water Temp Dewpoint Dewpoint Depression Visibility Wind Speed Wind Dir Waves Ship Positions

Santa Barbara

Last reported at 2016-May-30 05:24 UTC. Time now 2016-Jun-01 07:24 UTC.
Position S 33°52' E 033°35'.

Length 225 m; draft 8.8 m.

Type: Cargo ship. MMSI: 372230000.

Date/timePositionNaut miles runAvg speedWind from/ knotsBaromVisibWave heightAir tempDewpointWater temp
2016-May-30 05:24S 33°52' E 033°35'1413.3
2016-May-30 04:21S 33°58' E 033°19'1213.9
2016-May-30 03:28S 34°02' E 033°05'1314.4
2016-May-30 02:33S 34°07' E 032°51'1413.9
2016-May-30 01:33S 34°12' E 032°35'1514.0
2016-May-30 00:30S 34°17' E 032°18'4814.0
2016-May-29 21:06S 34°34' E 031°24'6013.2
2016-May-29 16:33S 34°55' E 030°16'1312.7
2016-May-29 15:33S 34°59' E 030°01'1312.6
2016-May-29 14:33S 34°60' E 029°46'  
Track history (hours):
 
Tides and Currents Weather Stations Pressure Air Temp Water Temp Dewpoint Dewpoint Depression Visibility Wind Speed Wind Dir Waves Ship Positions

Santa Barbara

Last reported at 2016-May-30 05:24 UTC. Time now 2016-Jun-01 07:24 UTC.
Position S 33°52' E 033°35'.

Length 225 m; draft 8.8 m.

Type: Cargo ship. MMSI: 372230000.

Date/timePositionNaut miles runAvg speedWind from/ knotsBaromVisibWave heightAir tempDewpointWater temp
2016-May-30 05:24S 33°52' E 033°35'1413.3
2016-May-30 04:21S 33°58' E 033°19'1213.9
2016-May-30 03:28S 34°02' E 033°05'1314.4
2016-May-30 02:33S 34°07' E 032°51'1413.9
2016-May-30 01:33S 34°12' E 032°35'1514.0
2016-May-30 00:30S 34°17' E 032°18'4814.0
2016-May-29 21:06S 34°34' E 031°24'6013.2
2016-May-29 16:33S 34°55' E 030°16'1312.7
2016-May-29 15:33S 34°59' E 030°01'1312.6
2016-May-29 14:33S 34°60' E 029°46'  

Dump ship's entire track history